sensor_id;sensor_type;location;lat;lon;timestamp;temperature;humidity
69162;DHT22;56269;51.738;21.652;2023-09-18T00:00:23;14.00;99.99
69162;DHT22;56269;51.738;21.652;2023-09-18T00:03:09;14.11;99.99
69162;DHT22;56269;51.738;21.652;2023-09-18T00:05:35;14.25;99.99
69162;DHT22;56269;51.738;21.652;2023-09-18T00:08:02;14.14;99.99
69162;DHT22;56269;51.738;21.652;2023-09-18T00:10:28;14.22;99.99
69162;DHT22;56269;51.738;21.652;2023-09-18T00:12:57;14.28;99.99
69162;DHT22;56269;51.738;21.652;2023-09-18T00:15:24;14.32;99.99
69162;DHT22;56269;51.738;21.652;2023-09-18T00:17:50;14.22;99.99
69162;DHT22;56269;51.738;21.652;2023-09-18T00:20:16;14.32;99.99
69162;DHT22;56269;51.738;21.652;2023-09-18T00:22:43;14.30;99.99
69162;DHT22;56269;51.738;21.652;2023-09-18T00:25:09;14.26;99.99
69162;DHT22;56269;51.738;21.652;2023-09-18T00:27:35;14.36;99.99
69162;DHT22;56269;51.738;21.652;2023-09-18T00:30:04;14.28;99.99
69162;DHT22;56269;51.738;21.652;2023-09-18T00:32:32;14.38;99.99
69162;DHT22;56269;51.738;21.652;2023-09-18T00:34:58;14.38;99.99
69162;DHT22;56269;51.738;21.652;2023-09-18T00:37:24;14.38;99.99
69162;DHT22;56269;51.738;21.652;2023-09-18T00:39:50;14.35;99.99
69162;DHT22;56269;51.738;21.652;2023-09-18T00:42:16;14.36;99.99
69162;DHT22;56269;51.738;21.652;2023-09-18T00:44:44;14.46;99.99
69162;DHT22;56269;51.738;21.652;2023-09-18T00:47:11;14.52;99.99
69162;DHT22;56269;51.738;21.652;2023-09-18T00:49:38;14.49;99.99
69162;DHT22;56269;51.738;21.652;2023-09-18T00:52:07;14.60;99.99
69162;DHT22;56269;51.738;21.652;2023-09-18T00:54:35;14.56;99.99
69162;DHT22;56269;51.738;21.652;2023-09-18T00:57:02;14.63;99.99
69162;DHT22;56269;51.738;21.652;2023-09-18T00:59:29;14.65;99.99
69162;DHT22;56269;51.738;21.652;2023-09-18T01:01:55;14.65;99.99
69162;DHT22;56269;51.738;21.652;2023-09-18T01:04:21;14.75;99.99
69162;DHT22;56269;51.738;21.652;2023-09-18T01:06:48;14.66;99.99
69162;DHT22;56269;51.738;21.652;2023-09-18T01:09:17;14.69;99.99
69162;DHT22;56269;51.738;21.652;2023-09-18T01:12:07;14.73;99.99
69162;DHT22;56269;51.738;21.652;2023-09-18T01:14:44;14.79;99.99
69162;DHT22;56269;51.738;21.652;2023-09-18T01:17:16;14.90;99.99
69162;DHT22;56269;51.738;21.652;2023-09-18T01:19:45;14.91;99.99
69162;DHT22;56269;51.738;21.652;2023-09-18T01:22:17;14.86;99.99
69162;DHT22;56269;51.738;21.652;2023-09-18T01:24:45;14.89;99.99
69162;DHT22;56269;51.738;21.652;2023-09-18T01:27:15;14.86;99.99
69162;DHT22;56269;51.738;21.652;2023-09-18T01:29:47;14.91;99.99
69162;DHT22;56269;51.738;21.652;2023-09-18T01:32:15;14.90;99.99
69162;DHT22;56269;51.738;21.652;2023-09-18T01:34:52;15.01;99.99
69162;DHT22;56269;51.738;21.652;2023-09-18T01:37:22;14.99;99.99
69162;DHT22;56269;51.738;21.652;2023-09-18T01:39:50;14.99;99.99
69162;DHT22;56269;51.738;21.652;2023-09-18T01:42:17;15.14;99.99
69162;DHT22;56269;51.738;21.652;2023-09-18T01:44:44;15.14;99.99
69162;DHT22;56269;51.738;21.652;2023-09-18T01:47:14;15.19;99.99
69162;DHT22;56269;51.738;21.652;2023-09-18T01:49:41;15.19;99.99
69162;DHT22;56269;51.738;21.652;2023-09-18T01:52:09;15.28;99.99
69162;DHT22;56269;51.738;21.652;2023-09-18T01:54:35;15.40;99.99
69162;DHT22;56269;51.738;21.652;2023-09-18T01:57:03;15.42;99.99
69162;DHT22;56269;51.738;21.652;2023-09-18T01:59:29;15.50;99.99
69162;DHT22;56269;51.738;21.652;2023-09-18T02:01:55;15.62;99.99
69162;DHT22;56269;51.738;21.652;2023-09-18T02:04:22;15.65;99.99
69162;DHT22;56269;51.738;21.652;2023-09-18T02:06:50;15.65;99.99
69162;DHT22;56269;51.738;21.652;2023-09-18T02:09:16;15.68;99.99
69162;DHT22;56269;51.738;21.652;2023-09-18T02:11:44;15.69;99.99
69162;DHT22;56269;51.738;21.652;2023-09-18T02:14:11;15.68;99.99
69162;DHT22;56269;51.738;21.652;2023-09-18T02:16:39;15.82;99.99
69162;DHT22;56269;51.738;21.652;2023-09-18T02:19:10;15.83;99.99
69162;DHT22;56269;51.738;21.652;2023-09-18T02:21:36;15.91;99.99
69162;DHT22;56269;51.738;21.652;2023-09-18T02:24:03;15.91;99.99
69162;DHT22;56269;51.738;21.652;2023-09-18T02:26:30;15.91;99.99
69162;DHT22;56269;51.738;21.652;2023-09-18T02:28:59;15.98;99.99
69162;DHT22;56269;51.738;21.652;2023-09-18T02:31:25;15.96;99.99
69162;DHT22;56269;51.738;21.652;2023-09-18T02:33:51;15.93;99.99
69162;DHT22;56269;51.738;21.652;2023-09-18T02:36:18;16.02;99.99
69162;DHT22;56269;51.738;21.652;2023-09-18T02:38:44;16.09;99.99
69162;DHT22;56269;51.738;21.652;2023-09-18T02:41:10;16.08;99.99
69162;DHT22;56269;51.738;21.652;2023-09-18T02:43:36;16.06;99.99
69162;DHT22;56269;51.738;21.652;2023-09-18T02:46:06;16.09;99.99
69162;DHT22;56269;51.738;21.652;2023-09-18T02:48:32;16.08;99.99
69162;DHT22;56269;51.738;21.652;2023-09-18T02:51:00;16.08;99.99
69162;DHT22;56269;51.738;21.652;2023-09-18T02:53:26;16.08;99.99
69162;DHT22;56269;51.738;21.652;2023-09-18T02:55:54;16.09;99.99
69162;DHT22;56269;51.738;21.652;2023-09-18T02:58:21;16.12;99.99
69162;DHT22;56269;51.738;21.652;2023-09-18T03:00:49;16.06;99.99
69162;DHT22;56269;51.738;21.652;2023-09-18T03:03:16;16.10;99.99
69162;DHT22;56269;51.738;21.652;2023-09-18T03:05:44;16.10;99.99
69162;DHT22;56269;51.738;21.652;2023-09-18T03:08:13;16.08;99.99
69162;DHT22;56269;51.738;21.652;2023-09-18T03:10:41;16.10;99.99
69162;DHT22;56269;51.738;21.652;2023-09-18T03:13:09;16.13;99.99
69162;DHT22;56269;51.738;21.652;2023-09-18T03:15:36;16.14;99.99
69162;DHT22;56269;51.738;21.652;2023-09-18T03:18:03;16.24;99.99
69162;DHT22;56269;51.738;21.652;2023-09-18T03:20:31;16.23;99.99
69162;DHT22;56269;51.738;21.652;2023-09-18T03:22:58;16.22;99.99
69162;DHT22;56269;51.738;21.652;2023-09-18T03:25:25;16.22;99.99
69162;DHT22;56269;51.738;21.652;2023-09-18T03:27:53;16.22;99.99
69162;DHT22;56269;51.738;21.652;2023-09-18T03:30:21;16.26;99.99
69162;DHT22;56269;51.738;21.652;2023-09-18T03:32:49;16.23;99.99
69162;DHT22;56269;51.738;21.652;2023-09-18T03:35:16;16.19;99.99
69162;DHT22;56269;51.738;21.652;2023-09-18T03:37:47;16.19;99.99
69162;DHT22;56269;51.738;21.652;2023-09-18T03:40:13;16.23;99.99
69162;DHT22;56269;51.738;21.652;2023-09-18T03:42:40;16.23;99.99
69162;DHT22;56269;51.738;21.652;2023-09-18T03:45:07;16.22;99.99
69162;DHT22;56269;51.738;21.652;2023-09-18T03:47:37;16.20;99.99
69162;DHT22;56269;51.738;21.652;2023-09-18T03:50:06;16.22;99.99
69162;DHT22;56269;51.738;21.652;2023-09-18T03:52:32;16.23;99.99
69162;DHT22;56269;51.738;21.652;2023-09-18T03:54:59;16.26;99.99
69162;DHT22;56269;51.738;21.652;2023-09-18T03:57:25;16.20;99.99
69162;DHT22;56269;51.738;21.652;2023-09-18T03:59:51;16.23;99.99
69162;DHT22;56269;51.738;21.652;2023-09-18T04:02:17;16.24;99.99
69162;DHT22;56269;51.738;21.652;2023-09-18T04:04:43;16.24;99.99
69162;DHT22;56269;51.738;21.652;2023-09-18T04:07:09;16.23;99.99
69162;DHT22;56269;51.738;21.652;2023-09-18T04:09:37;16.23;99.99
69162;DHT22;56269;51.738;21.652;2023-09-18T04:12:04;16.26;99.99
69162;DHT22;56269;51.738;21.652;2023-09-18T04:14:34;16.30;99.99
69162;DHT22;56269;51.738;21.652;2023-09-18T04:17:01;16.32;99.99
69162;DHT22;56269;51.738;21.652;2023-09-18T04:19:29;16.33;99.99
69162;DHT22;56269;51.738;21.652;2023-09-18T04:21:55;16.33;99.99
69162;DHT22;56269;51.738;21.652;2023-09-18T04:24:21;16.39;99.99
69162;DHT22;56269;51.738;21.652;2023-09-18T04:26:48;16.46;99.99
69162;DHT22;56269;51.738;21.652;2023-09-18T04:29:17;16.49;99.99
69162;DHT22;56269;51.738;21.652;2023-09-18T04:31:43;16.50;99.99
69162;DHT22;56269;51.738;21.652;2023-09-18T04:34:10;16.59;99.99
69162;DHT22;56269;51.738;21.652;2023-09-18T04:36:36;16.56;99.99
69162;DHT22;56269;51.738;21.652;2023-09-18T04:39:04;16.46;99.99
69162;DHT22;56269;51.738;21.652;2023-09-18T04:41:31;16.49;99.99
69162;DHT22;56269;51.738;21.652;2023-09-18T04:43:57;16.54;99.99
69162;DHT22;56269;51.738;21.652;2023-09-18T04:46:23;16.57;99.99
69162;DHT22;56269;51.738;21.652;2023-09-18T04:48:52;16.60;99.99
69162;DHT22;56269;51.738;21.652;2023-09-18T04:51:18;16.61;99.99
69162;DHT22;56269;51.738;21.652;2023-09-18T04:53:44;16.64;99.99
69162;DHT22;56269;51.738;21.652;2023-09-18T04:56:10;16.68;99.99
69162;DHT22;56269;51.738;21.652;2023-09-18T04:58:37;16.73;99.99
69162;DHT22;56269;51.738;21.652;2023-09-18T05:01:04;16.71;99.99
69162;DHT22;56269;51.738;21.652;2023-09-18T05:03:34;16.75;99.99
69162;DHT22;56269;51.738;21.652;2023-09-18T05:06:00;16.81;99.99
69162;DHT22;56269;51.738;21.652;2023-09-18T05:08:27;16.87;99.99
69162;DHT22;56269;51.738;21.652;2023-09-18T05:10:53;16.89;99.99
69162;DHT22;56269;51.738;21.652;2023-09-18T05:13:19;16.96;99.83
69162;DHT22;56269;51.738;21.652;2023-09-18T05:15:45;16.98;99.76
69162;DHT22;56269;51.738;21.652;2023-09-18T05:18:11;17.04;99.56
69162;DHT22;56269;51.738;21.652;2023-09-18T05:20:39;17.18;99.44
69162;DHT22;56269;51.738;21.652;2023-09-18T05:23:06;17.15;99.28
69162;DHT22;56269;51.738;21.652;2023-09-18T05:25:33;17.19;99.15
69162;DHT22;56269;51.738;21.652;2023-09-18T05:28:00;17.24;99.02
69162;DHT22;56269;51.738;21.652;2023-09-18T05:30:29;17.29;98.84
69162;DHT22;56269;51.738;21.652;2023-09-18T05:32:57;17.31;98.64
69162;DHT22;56269;51.738;21.652;2023-09-18T05:35:31;17.36;98.33
69162;DHT22;56269;51.738;21.652;2023-09-18T05:37:57;17.39;98.39
69162;DHT22;56269;51.738;21.652;2023-09-18T05:40:24;17.47;98.28
69162;DHT22;56269;51.738;21.652;2023-09-18T05:42:55;17.57;98.23
69162;DHT22;56269;51.738;21.652;2023-09-18T05:45:22;17.66;97.97
69162;DHT22;56269;51.738;21.652;2023-09-18T05:47:49;17.69;97.64
69162;DHT22;56269;51.738;21.652;2023-09-18T05:50:16;17.75;97.34
69162;DHT22;56269;51.738;21.652;2023-09-18T05:52:43;17.79;97.26
69162;DHT22;56269;51.738;21.652;2023-09-18T05:55:10;17.77;96.92
69162;DHT22;56269;51.738;21.652;2023-09-18T05:57:37;17.87;97.17
69162;DHT22;56269;51.738;21.652;2023-09-18T06:00:03;17.94;96.95
69162;DHT22;56269;51.738;21.652;2023-09-18T06:02:31;17.93;96.71
69162;DHT22;56269;51.738;21.652;2023-09-18T06:04:58;17.98;96.63
69162;DHT22;56269;51.738;21.652;2023-09-18T06:07:30;18.08;96.52
69162;DHT22;56269;51.738;21.652;2023-09-18T06:09:57;18.17;96.29
69162;DHT22;56269;51.738;21.652;2023-09-18T06:12:24;18.31;96.04
69162;DHT22;56269;51.738;21.652;2023-09-18T06:14:50;18.44;95.92
69162;DHT22;56269;51.738;21.652;2023-09-18T06:17:17;18.45;95.33
69162;DHT22;56269;51.738;21.652;2023-09-18T06:19:44;18.54;95.16
69162;DHT22;56269;51.738;21.652;2023-09-18T06:22:12;18.64;95.13
69162;DHT22;56269;51.738;21.652;2023-09-18T06:24:38;18.69;94.76
69162;DHT22;56269;51.738;21.652;2023-09-18T06:27:05;18.78;94.53
69162;DHT22;56269;51.738;21.652;2023-09-18T06:29:32;18.91;94.07
69162;DHT22;56269;51.738;21.652;2023-09-18T06:31:59;19.12;93.88
69162;DHT22;56269;51.738;21.652;2023-09-18T06:34:26;19.27;93.94
69162;DHT22;56269;51.738;21.652;2023-09-18T06:36:54;19.43;93.02
69162;DHT22;56269;51.738;21.652;2023-09-18T06:39:20;19.41;92.55
69162;DHT22;56269;51.738;21.652;2023-09-18T06:41:48;19.56;92.36
69162;DHT22;56269;51.738;21.652;2023-09-18T06:44:14;19.63;91.81
69162;DHT22;56269;51.738;21.652;2023-09-18T06:46:41;19.66;92.09
69162;DHT22;56269;51.738;21.652;2023-09-18T06:49:07;19.78;91.85
69162;DHT22;56269;51.738;21.652;2023-09-18T06:51:33;19.85;91.13
69162;DHT22;56269;51.738;21.652;2023-09-18T06:53:59;19.87;91.23
69162;DHT22;56269;51.738;21.652;2023-09-18T06:56:28;20.14;90.66
69162;DHT22;56269;51.738;21.652;2023-09-18T06:58:55;20.28;89.94
69162;DHT22;56269;51.738;21.652;2023-09-18T07:01:22;20.45;89.81
69162;DHT22;56269;51.738;21.652;2023-09-18T07:03:49;20.52;89.62
69162;DHT22;56269;51.738;21.652;2023-09-18T07:06:16;21.34;86.96
69162;DHT22;56269;51.738;21.652;2023-09-18T07:08:46;21.89;85.20
69162;DHT22;56269;51.738;21.652;2023-09-18T07:11:16;22.10;84.71
69162;DHT22;56269;51.738;21.652;2023-09-18T07:13:42;22.16;84.34
69162;DHT22;56269;51.738;21.652;2023-09-18T07:16:09;22.16;83.80
69162;DHT22;56269;51.738;21.652;2023-09-18T07:18:36;22.56;83.52
69162;DHT22;56269;51.738;21.652;2023-09-18T07:21:02;23.07;81.75
69162;DHT22;56269;51.738;21.652;2023-09-18T07:23:28;23.10;80.85
69162;DHT22;56269;51.738;21.652;2023-09-18T07:25:54;23.69;79.89
69162;DHT22;56269;51.738;21.652;2023-09-18T07:28:20;23.96;78.67
69162;DHT22;56269;51.738;21.652;2023-09-18T07:30:47;23.83;78.92
69162;DHT22;56269;51.738;21.652;2023-09-18T07:33:14;23.82;78.36
69162;DHT22;56269;51.738;21.652;2023-09-18T07:35:50;24.09;78.18
69162;DHT22;56269;51.738;21.652;2023-09-18T07:38:19;24.20;77.52
69162;DHT22;56269;51.738;21.652;2023-09-18T07:40:46;24.18;76.58
69162;DHT22;56269;51.738;21.652;2023-09-18T07:43:13;24.10;77.63
69162;DHT22;56269;51.738;21.652;2023-09-18T07:45:40;24.34;76.86
69162;DHT22;56269;51.738;21.652;2023-09-18T07:48:07;24.57;75.94
69162;DHT22;56269;51.738;21.652;2023-09-18T07:50:34;24.31;76.54
69162;DHT22;56269;51.738;21.652;2023-09-18T07:53:01;24.85;76.51
69162;DHT22;56269;51.738;21.652;2023-09-18T07:55:29;25.25;74.38
69162;DHT22;56269;51.738;21.652;2023-09-18T07:57:56;25.23;73.68
69162;DHT22;56269;51.738;21.652;2023-09-18T08:00:22;24.82;74.53
69162;DHT22;56269;51.738;21.652;2023-09-18T08:02:49;25.60;73.33
69162;DHT22;56269;51.738;21.652;2023-09-18T08:05:16;25.87;72.84
69162;DHT22;56269;51.738;21.652;2023-09-18T08:07:43;25.87;72.56
69162;DHT22;56269;51.738;21.652;2023-09-18T08:10:09;25.80;72.67
69162;DHT22;56269;51.738;21.652;2023-09-18T08:12:35;25.79;71.30
69162;DHT22;56269;51.738;21.652;2023-09-18T08:15:02;25.71;72.32
69162;DHT22;56269;51.738;21.652;2023-09-18T08:17:28;25.93;71.69
69162;DHT22;56269;51.738;21.652;2023-09-18T08:19:55;25.79;72.28
69162;DHT22;56269;51.738;21.652;2023-09-18T08:22:21;26.49;71.24
69162;DHT22;56269;51.738;21.652;2023-09-18T08:24:48;26.28;70.74
69162;DHT22;56269;51.738;21.652;2023-09-18T08:27:14;26.62;70.03
69162;DHT22;56269;51.738;21.652;2023-09-18T08:29:45;26.83;68.79
69162;DHT22;56269;51.738;21.652;2023-09-18T08:32:11;26.99;68.10
69162;DHT22;56269;51.738;21.652;2023-09-18T08:34:38;26.42;68.78
69162;DHT22;56269;51.738;21.652;2023-09-18T08:37:04;26.69;68.70
69162;DHT22;56269;51.738;21.652;2023-09-18T08:39:30;27.13;67.74
69162;DHT22;56269;51.738;21.652;2023-09-18T08:42:03;27.27;67.03
69162;DHT22;56269;51.738;21.652;2023-09-18T08:44:30;27.50;66.49
69162;DHT22;56269;51.738;21.652;2023-09-18T08:46:57;27.67;66.83
69162;DHT22;56269;51.738;21.652;2023-09-18T08:49:24;27.51;66.34
69162;DHT22;56269;51.738;21.652;2023-09-18T08:51:51;27.65;66.83
69162;DHT22;56269;51.738;21.652;2023-09-18T08:54:19;27.84;66.69
69162;DHT22;56269;51.738;21.652;2023-09-18T08:56:46;27.40;66.51
69162;DHT22;56269;51.738;21.652;2023-09-18T08:59:12;27.76;66.63
69162;DHT22;56269;51.738;21.652;2023-09-18T09:01:39;28.12;64.92
69162;DHT22;56269;51.738;21.652;2023-09-18T09:04:06;28.63;64.81
69162;DHT22;56269;51.738;21.652;2023-09-18T09:06:32;28.33;63.68
69162;DHT22;56269;51.738;21.652;2023-09-18T09:08:58;28.02;64.48
69162;DHT22;56269;51.738;21.652;2023-09-18T09:11:25;28.08;63.96
69162;DHT22;56269;51.738;21.652;2023-09-18T09:14:13;28.01;64.12
69162;DHT22;56269;51.738;21.652;2023-09-18T09:16:55;28.05;64.09
69162;DHT22;56269;51.738;21.652;2023-09-18T09:19:32;28.02;64.06
69162;DHT22;56269;51.738;21.652;2023-09-18T09:22:01;28.41;63.85
69162;DHT22;56269;51.738;21.652;2023-09-18T09:24:38;28.83;62.36
69162;DHT22;56269;51.738;21.652;2023-09-18T09:27:04;28.89;63.06
69162;DHT22;56269;51.738;21.652;2023-09-18T09:29:31;28.66;62.52
69162;DHT22;56269;51.738;21.652;2023-09-18T09:32:16;28.60;62.20
69162;DHT22;56269;51.738;21.652;2023-09-18T09:34:44;28.87;62.73
69162;DHT22;56269;51.738;21.652;2023-09-18T09:37:10;29.58;61.89
69162;DHT22;56269;51.738;21.652;2023-09-18T09:39:52;29.64;61.21
69162;DHT22;56269;51.738;21.652;2023-09-18T09:42:20;29.39;60.72
69162;DHT22;56269;51.738;21.652;2023-09-18T09:45:05;29.61;60.13
69162;DHT22;56269;51.738;21.652;2023-09-18T09:47:35;28.83;62.70
69162;DHT22;56269;51.738;21.652;2023-09-18T09:50:09;28.56;61.33
69162;DHT22;56269;51.738;21.652;2023-09-18T09:52:36;28.31;61.35
69162;DHT22;56269;51.738;21.652;2023-09-18T09:55:24;28.65;60.77
69162;DHT22;56269;51.738;21.652;2023-09-18T09:57:59;29.00;60.51
69162;DHT22;56269;51.738;21.652;2023-09-18T10:00:38;29.28;58.62
69162;DHT22;56269;51.738;21.652;2023-09-18T10:03:13;29.11;57.52
69162;DHT22;56269;51.738;21.652;2023-09-18T10:05:49;29.57;59.09
69162;DHT22;56269;51.738;21.652;2023-09-18T10:08:17;29.24;58.87
69162;DHT22;56269;51.738;21.652;2023-09-18T10:10:53;28.93;58.39
69162;DHT22;56269;51.738;21.652;2023-09-18T10:13:41;28.74;58.73
69162;DHT22;56269;51.738;21.652;2023-09-18T10:16:09;29.45;57.71
69162;DHT22;56269;51.738;21.652;2023-09-18T10:18:49;29.33;58.64
69162;DHT22;56269;51.738;21.652;2023-09-18T10:21:28;28.94;57.68
69162;DHT22;56269;51.738;21.652;2023-09-18T10:24:04;28.96;58.96
69162;DHT22;56269;51.738;21.652;2023-09-18T10:26:36;29.06;57.64
69162;DHT22;56269;51.738;21.652;2023-09-18T10:29:10;29.28;56.82
69162;DHT22;56269;51.738;21.652;2023-09-18T10:31:39;29.57;55.61
69162;DHT22;56269;51.738;21.652;2023-09-18T10:34:07;29.37;55.14
69162;DHT22;56269;51.738;21.652;2023-09-18T10:36:36;29.44;54.80
69162;DHT22;56269;51.738;21.652;2023-09-18T10:39:03;29.53;55.09
69162;DHT22;56269;51.738;21.652;2023-09-18T10:41:34;29.76;55.48
69162;DHT22;56269;51.738;21.652;2023-09-18T10:44:01;30.26;54.91
69162;DHT22;56269;51.738;21.652;2023-09-18T10:46:28;30.60;53.21
69162;DHT22;56269;51.738;21.652;2023-09-18T10:48:54;30.63;52.65
69162;DHT22;56269;51.738;21.652;2023-09-18T10:51:22;30.80;51.90
69162;DHT22;56269;51.738;21.652;2023-09-18T10:53:49;31.07;51.78
69162;DHT22;56269;51.738;21.652;2023-09-18T10:56:16;30.55;51.20
69162;DHT22;56269;51.738;21.652;2023-09-18T10:58:43;30.52;52.05
69162;DHT22;56269;51.738;21.652;2023-09-18T11:01:12;30.46;51.78
69162;DHT22;56269;51.738;21.652;2023-09-18T11:03:39;30.47;51.99
69162;DHT22;56269;51.738;21.652;2023-09-18T11:06:07;29.95;51.71
69162;DHT22;56269;51.738;21.652;2023-09-18T11:08:43;29.96;52.63
69162;DHT22;56269;51.738;21.652;2023-09-18T11:11:13;29.76;52.87
69162;DHT22;56269;51.738;21.652;2023-09-18T11:13:42;30.32;52.42
69162;DHT22;56269;51.738;21.652;2023-09-18T11:21:25;30.35;53.12
69162;DHT22;56269;51.738;21.652;2023-09-18T11:24:22;30.16;52.12
69162;DHT22;56269;51.738;21.652;2023-09-18T11:26:50;29.88;53.10
69162;DHT22;56269;51.738;21.652;2023-09-18T11:29:21;30.32;52.57
69162;DHT22;56269;51.738;21.652;2023-09-18T11:31:52;30.05;52.20
69162;DHT22;56269;51.738;21.652;2023-09-18T11:34:28;29.96;52.98
69162;DHT22;56269;51.738;21.652;2023-09-18T11:36:58;30.27;52.27
69162;DHT22;56269;51.738;21.652;2023-09-18T11:39:36;29.88;52.37
69162;DHT22;56269;51.738;21.652;2023-09-18T11:42:12;29.69;52.47
69162;DHT22;56269;51.738;21.652;2023-09-18T11:44:39;30.22;52.44
69162;DHT22;56269;51.738;21.652;2023-09-18T11:47:17;30.33;52.27
69162;DHT22;56269;51.738;21.652;2023-09-18T11:49:49;30.59;52.18
69162;DHT22;56269;51.738;21.652;2023-09-18T11:52:22;30.43;51.62
69162;DHT22;56269;51.738;21.652;2023-09-18T11:54:48;30.57;51.46
69162;DHT22;56269;51.738;21.652;2023-09-18T11:57:17;30.68;50.35
69162;DHT22;56269;51.738;21.652;2023-09-18T11:59:43;30.73;50.75
69162;DHT22;56269;51.738;21.652;2023-09-18T12:02:31;30.76;50.92
69162;DHT22;56269;51.738;21.652;2023-09-18T12:05:14;30.61;49.91
69162;DHT22;56269;51.738;21.652;2023-09-18T12:07:43;30.53;49.67
69162;DHT22;56269;51.738;21.652;2023-09-18T12:10:17;30.47;50.90
69162;DHT22;56269;51.738;21.652;2023-09-18T12:12:44;30.13;50.94
69162;DHT22;56269;51.738;21.652;2023-09-18T12:15:11;30.64;50.32
69162;DHT22;56269;51.738;21.652;2023-09-18T12:17:38;31.04;50.79
69162;DHT22;56269;51.738;21.652;2023-09-18T12:20:04;30.53;51.24
69162;DHT22;56269;51.738;21.652;2023-09-18T12:22:32;30.04;53.20
69162;DHT22;56269;51.738;21.652;2023-09-18T12:25:14;29.95;53.30
69162;DHT22;56269;51.738;21.652;2023-09-18T12:27:41;30.57;53.99
69162;DHT22;56269;51.738;21.652;2023-09-18T12:30:08;30.35;52.92
69162;DHT22;56269;51.738;21.652;2023-09-18T12:32:38;30.22;53.83
69162;DHT22;56269;51.738;21.652;2023-09-18T12:35:08;30.47;52.75
69162;DHT22;56269;51.738;21.652;2023-09-18T12:37:39;30.61;53.85
69162;DHT22;56269;51.738;21.652;2023-09-18T12:40:19;30.40;53.99
69162;DHT22;56269;51.738;21.652;2023-09-18T12:42:47;30.52;53.41
69162;DHT22;56269;51.738;21.652;2023-09-18T12:45:13;30.41;51.73
69162;DHT22;56269;51.738;21.652;2023-09-18T12:47:40;30.78;51.82
69162;DHT22;56269;51.738;21.652;2023-09-18T12:50:06;30.43;53.36
69162;DHT22;56269;51.738;21.652;2023-09-18T12:52:33;30.26;53.23
69162;DHT22;56269;51.738;21.652;2023-09-18T12:54:59;30.37;54.06
69162;DHT22;56269;51.738;21.652;2023-09-18T12:57:28;30.60;53.72
69162;DHT22;56269;51.738;21.652;2023-09-18T12:59:54;31.19;53.14
69162;DHT22;56269;51.738;21.652;2023-09-18T13:02:21;31.07;53.70
69162;DHT22;56269;51.738;21.652;2023-09-18T13:04:52;30.74;53.08
69162;DHT22;56269;51.738;21.652;2023-09-18T13:07:18;30.33;53.41
69162;DHT22;56269;51.738;21.652;2023-09-18T13:10:04;30.05;54.01
69162;DHT22;56269;51.738;21.652;2023-09-18T13:12:47;29.82;54.61
69162;DHT22;56269;51.738;21.652;2023-09-18T13:15:27;29.79;55.18
69162;DHT22;56269;51.738;21.652;2023-09-18T13:17:55;29.20;56.16
69162;DHT22;56269;51.738;21.652;2023-09-18T13:20:24;28.52;58.02
69162;DHT22;56269;51.738;21.652;2023-09-18T13:22:52;29.24;57.65
69162;DHT22;56269;51.738;21.652;2023-09-18T13:25:21;28.69;58.56
69162;DHT22;56269;51.738;21.652;2023-09-18T13:27:49;28.38;59.30
69162;DHT22;56269;51.738;21.652;2023-09-18T13:30:15;27.49;62.03
69162;DHT22;56269;51.738;21.652;2023-09-18T13:32:44;27.12;63.48
69162;DHT22;56269;51.738;21.652;2023-09-18T13:35:11;27.20;63.59
69162;DHT22;56269;51.738;21.652;2023-09-18T13:37:40;27.61;62.86
69162;DHT22;56269;51.738;21.652;2023-09-18T13:40:07;27.63;63.18
69162;DHT22;56269;51.738;21.652;2023-09-18T13:42:35;27.09;64.07
69162;DHT22;56269;51.738;21.652;2023-09-18T13:45:02;26.89;65.44
69162;DHT22;56269;51.738;21.652;2023-09-18T13:47:35;26.58;65.58
69162;DHT22;56269;51.738;21.652;2023-09-18T13:50:05;26.48;66.20
69162;DHT22;56269;51.738;21.652;2023-09-18T13:52:33;27.10;64.46
69162;DHT22;56269;51.738;21.652;2023-09-18T13:55:01;27.68;62.89
69162;DHT22;56269;51.738;21.652;2023-09-18T13:57:29;28.33;61.90
69162;DHT22;56269;51.738;21.652;2023-09-18T13:59:55;28.33;60.16
69162;DHT22;56269;51.738;21.652;2023-09-18T14:02:22;28.49;60.60
69162;DHT22;56269;51.738;21.652;2023-09-18T14:04:53;28.59;60.72
69162;DHT22;56269;51.738;21.652;2023-09-18T14:07:20;27.95;61.54
69162;DHT22;56269;51.738;21.652;2023-09-18T14:09:46;27.29;62.83
69162;DHT22;56269;51.738;21.652;2023-09-18T14:12:13;26.83;64.44
69162;DHT22;56269;51.738;21.652;2023-09-18T14:14:39;27.17;63.92
69162;DHT22;56269;51.738;21.652;2023-09-18T14:17:06;27.50;63.24
69162;DHT22;56269;51.738;21.652;2023-09-18T14:19:32;27.88;62.78
69162;DHT22;56269;51.738;21.652;2023-09-18T14:21:58;28.36;62.14
69162;DHT22;56269;51.738;21.652;2023-09-18T14:24:32;28.42;61.44
69162;DHT22;56269;51.738;21.652;2023-09-18T14:27:01;27.71;61.93
69162;DHT22;56269;51.738;21.652;2023-09-18T14:29:27;27.76;62.71
69162;DHT22;56269;51.738;21.652;2023-09-18T14:31:53;27.67;62.77
69162;DHT22;56269;51.738;21.652;2023-09-18T14:34:19;27.74;62.98
69162;DHT22;56269;51.738;21.652;2023-09-18T14:36:46;27.22;63.45
69162;DHT22;56269;51.738;21.652;2023-09-18T14:39:12;26.81;64.25
69162;DHT22;56269;51.738;21.652;2023-09-18T14:41:40;26.75;65.00
69162;DHT22;56269;51.738;21.652;2023-09-18T14:44:08;27.06;64.30
69162;DHT22;56269;51.738;21.652;2023-09-18T14:46:36;27.33;63.98
69162;DHT22;56269;51.738;21.652;2023-09-18T14:49:06;27.55;63.07
69162;DHT22;56269;51.738;21.652;2023-09-18T14:51:36;27.44;62.41
69162;DHT22;56269;51.738;21.652;2023-09-18T14:54:02;27.70;62.01
69162;DHT22;56269;51.738;21.652;2023-09-18T14:56:31;27.74;62.01
69162;DHT22;56269;51.738;21.652;2023-09-18T14:58:57;27.64;61.95
69162;DHT22;56269;51.738;21.652;2023-09-18T15:01:24;27.55;62.39
69162;DHT22;56269;51.738;21.652;2023-09-18T15:03:50;27.51;62.10
69162;DHT22;56269;51.738;21.652;2023-09-18T15:06:17;27.16;62.76
69162;DHT22;56269;51.738;21.652;2023-09-18T15:08:44;26.90;63.60
69162;DHT22;56269;51.738;21.652;2023-09-18T15:11:10;26.81;64.07
69162;DHT22;56269;51.738;21.652;2023-09-18T15:13:38;26.53;64.47
69162;DHT22;56269;51.738;21.652;2023-09-18T15:16:07;26.37;64.82
69162;DHT22;56269;51.738;21.652;2023-09-18T15:18:34;26.25;65.52
69162;DHT22;56269;51.738;21.652;2023-09-18T15:21:02;26.31;65.06
69162;DHT22;56269;51.738;21.652;2023-09-18T15:23:28;26.37;65.13
69162;DHT22;56269;51.738;21.652;2023-09-18T15:25:56;26.35;65.02
69162;DHT22;56269;51.738;21.652;2023-09-18T15:28:23;26.31;65.07